Time,TemperatureF,DewpointF,PressureIn,WindDirection,WindDirectionDegrees,WindSpeedMPH,WindSpeedGustMPH,Humidity,HourlyPrecipIn,Conditions,Clouds,dailyrainin,SolarRadiationWatts/m^2,SoftwareType,DateUTC
2013-06-22 00:00:00,65.9,61.3,25.96,SE,134,0.0,0.0,85,0.00,,,0.00,0,Wunderground v.1.15,2013-06-22 06:00:00,
2013-06-22 00:10:00,66.0,61.4,25.95,SE,134,0.0,1.0,85,0.00,,,0.00,0,Wunderground v.1.15,2013-06-22 06:10:00,
2013-06-22 00:15:00,66.0,61.0,25.95,East,91,0.0,1.0,84,0.00,,,0.00,0,Wunderground v.1.15,2013-06-22 06:15:00,
2013-06-22 00:25:00,66.2,61.2,25.95,East,92,1.0,1.0,84,0.00,,,0.00,0,Wunderground v.1.15,2013-06-22 06:25:00,
2013-06-22 00:30:00,66.2,61.2,25.94,SSE,148,0.0,0.0,84,0.00,,,0.00,0,Wunderground v.1.15,2013-06-22 06:30:00,
2013-06-22 00:35:00,66.2,61.2,25.94,SSE,148,0.0,0.0,84,0.00,,,0.00,0,Wunderground v.1.15,2013-06-22 06:35:00,
2013-06-22 00:40:00,66.0,61.0,25.94,SSE,148,0.0,0.0,84,0.00,,,0.00,0,Wunderground v.1.15,2013-06-22 06:40:00,
2013-06-22 00:45:00,65.9,61.3,25.94,SSE,148,0.0,0.0,85,0.00,,,0.00,0,Wunderground v.1.15,2013-06-22 06:45:00,
2013-06-22 00:55:00,65.7,60.7,25.94,SSE,148,0.0,0.0,84,0.00,,,0.00,0,Wunderground v.1.15,2013-06-22 06:55:00,
2013-06-22 01:00:00,65.9,60.9,25.93,SSE,149,0.0,0.0,84,0.00,,,0.00,0,Wunderground v.1.15,2013-06-22 07:00:00,
2013-06-22 01:05:00,65.9,60.9,25.93,SSE,148,0.0,0.0,84,0.00,,,0.00,0,Wunderground v.1.15,2013-06-22 07:05:00,
2013-06-22 01:10:00,65.9,60.9,25.93,SSE,148,0.0,0.0,84,0.00,,,0.00,0,Wunderground v.1.15,2013-06-22 07:10:00,
2013-06-22 01:20:00,65.9,60.9,25.93,SSE,148,0.0,0.0,84,0.00,,,0.00,0,Wunderground v.1.15,2013-06-22 07:20:00,
2013-06-22 01:25:00,66.0,60.3,25.92,East,89,1.0,1.0,82,0.00,,,0.00,0,Wunderground v.1.15,2013-06-22 07:25:00,
2013-06-22 01:30:00,66.2,60.5,25.92,East,88,1.0,1.0,82,0.00,,,0.00,0,Wunderground v.1.15,2013-06-22 07:30:00,
2013-06-22 01:35:00,66.0,60.3,25.92,East,88,0.0,1.0,82,0.00,,,0.00,0,Wunderground v.1.15,2013-06-22 07:35:00,
2013-06-22 01:40:00,65.9,60.9,25.92,East,88,0.0,0.0,84,0.00,,,0.00,0,Wunderground v.1.15,2013-06-22 07:40:00,
2013-06-22 01:50:00,65.4,60.8,25.92,East,88,0.0,0.0,85,0.00,,,0.00,0,Wunderground v.1.15,2013-06-22 07:50:00,
2013-06-22 01:55:00,65.2,60.6,25.92,East,88,0.0,0.0,85,0.00,,,0.00,0,Wunderground v.1.15,2013-06-22 07:55:00,
2013-06-22 02:00:00,64.9,60.6,25.92,ESE,113,0.0,2.0,86,0.00,,,0.00,0,Wunderground v.1.15,2013-06-22 08:00:00,
2013-06-22 02:10:00,64.4,60.1,25.91,ESE,113,0.0,0.0,86,0.00,,,0.00,0,Wunderground v.1.15,2013-06-22 08:10:00,
2013-06-22 02:20:00,64.1,59.8,25.91,ESE,113,0.0,0.0,86,0.00,,,0.00,0,Wunderground v.1.15,2013-06-22 08:20:00,
2013-06-22 02:25:00,64.1,60.2,25.91,ESE,113,0.0,1.0,87,0.00,,,0.00,0,Wunderground v.1.15,2013-06-22 08:25:00,
2013-06-22 02:30:00,64.1,60.2,25.90,ESE,114,0.0,0.0,87,0.00,,,0.00,0,Wunderground v.1.15,2013-06-22 08:30:00,
2013-06-22 02:35:00,64.1,60.2,25.90,ESE,114,0.0,1.0,87,0.00,,,0.00,0,Wunderground v.1.15,2013-06-22 08:35:00,
2013-06-22 02:40:00,64.1,59.8,25.90,South,174,0.0,0.0,86,0.00,,,0.00,0,Wunderground v.1.15,2013-06-22 08:40:00,
2013-06-22 02:50:00,64.1,60.2,25.91,South,174,0.0,0.0,87,0.00,,,0.00,0,Wunderground v.1.15,2013-06-22 08:50:00,
2013-06-22 02:55:00,64.2,60.2,25.91,South,174,0.0,0.0,87,0.00,,,0.00,0,Wunderground v.1.15,2013-06-22 08:55:00,
2013-06-22 03:00:00,64.2,60.2,25.91,East,101,0.0,0.0,87,0.00,,,0.00,0,Wunderground v.1.15,2013-06-22 09:00:00,
2013-06-22 03:05:00,64.4,60.4,25.91,East,101,0.0,0.0,87,0.00,,,0.00,0,Wunderground v.1.15,2013-06-22 09:05:00,
2013-06-22 03:10:00,64.4,60.4,25.91,East,101,0.0,0.0,87,0.00,,,0.00,0,Wunderground v.1.15,2013-06-22 09:10:00,
2013-06-22 03:20:00,64.7,60.7,25.90,East,101,0.0,0.0,87,0.00,,,0.00,0,Wunderground v.1.15,2013-06-22 09:20:00,
2013-06-22 03:25:00,64.9,60.9,25.90,ESE,118,0.0,0.0,87,0.00,,,0.00,0,Wunderground v.1.15,2013-06-22 09:25:00,
2013-06-22 03:30:00,64.9,60.6,25.90,ESE,118,0.0,0.0,86,0.00,,,0.00,0,Wunderground v.1.15,2013-06-22 09:30:00,
2013-06-22 03:35:00,64.9,60.6,25.90,ESE,119,0.0,0.0,86,0.00,,,0.00,0,Wunderground v.1.15,2013-06-22 09:35:00,
2013-06-22 03:40:00,64.9,60.6,25.90,ESE,118,0.0,0.0,86,0.00,,,0.00,0,Wunderground v.1.15,2013-06-22 09:40:00,
2013-06-22 03:50:00,64.7,60.1,25.90,ESE,119,0.0,0.0,85,0.00,,,0.00,0,Wunderground v.1.15,2013-06-22 09:50:00,
2013-06-22 03:55:00,64.6,60.0,25.90,ESE,119,0.0,0.0,85,0.00,,,0.00,0,Wunderground v.1.15,2013-06-22 09:55:00,
2013-06-22 04:00:00,64.4,60.1,25.90,ESE,119,0.0,1.0,86,0.00,,,0.00,0,Wunderground v.1.15,2013-06-22 10:00:00,
2013-06-22 04:10:00,64.2,59.9,25.91,ESE,119,0.0,0.0,86,0.00,,,0.00,0,Wunderground v.1.15,2013-06-22 10:10:00,
2013-06-22 04:15:00,64.2,59.9,25.91,South,169,0.0,2.0,86,0.00,,,0.00,0,Wunderground v.1.15,2013-06-22 10:15:00,
2013-06-22 04:20:00,64.2,59.9,25.91,ESE,120,1.0,1.0,86,0.00,,,0.00,0,Wunderground v.1.15,2013-06-22 10:20:00,
2013-06-22 04:25:00,64.2,59.9,25.91,SE,131,1.0,1.0,86,0.00,,,0.00,0,Wunderground v.1.15,2013-06-22 10:25:00,
2013-06-22 04:30:00,64.4,60.1,25.92,SE,131,1.0,1.0,86,0.00,,,0.00,0,Wunderground v.1.15,2013-06-22 10:30:00,
2013-06-22 04:35:00,64.4,60.1,25.92,SE,131,0.0,1.0,86,0.00,,,0.00,0,Wunderground v.1.15,2013-06-22 10:35:00,
2013-06-22 04:40:00,64.6,60.0,25.92,SE,131,0.0,0.0,85,0.00,,,0.00,0,Wunderground v.1.15,2013-06-22 10:40:00,
2013-06-22 04:46:00,64.6,60.0,25.92,SE,131,0.0,1.0,85,0.00,,,0.00,0,Wunderground v.1.15,2013-06-22 10:46:00,
2013-06-22 04:55:00,64.6,60.0,25.92,SE,134,1.0,1.0,85,0.00,,,0.00,0,Wunderground v.1.15,2013-06-22 10:55:00,
2013-06-22 05:00:00,64.7,60.1,25.92,SE,134,1.0,1.0,85,0.00,,,0.00,0,Wunderground v.1.15,2013-06-22 11:00:00,
2013-06-22 05:10:00,65.4,60.8,25.92,ENE,78,3.0,3.0,85,0.00,,,0.00,0,Wunderground v.1.15,2013-06-22 11:10:00,
2013-06-22 05:15:00,65.5,60.5,25.92,SE,132,4.0,4.0,84,0.00,,,0.00,0,Wunderground v.1.15,2013-06-22 11:15:00,
2013-06-22 05:20:00,65.7,60.7,25.93,SE,129,3.0,3.0,84,0.00,,,0.00,0,Wunderground v.1.15,2013-06-22 11:20:00,
2013-06-22 05:25:00,65.7,60.7,25.93,SSE,168,2.0,3.0,84,0.00,,,0.00,0,Wunderground v.1.15,2013-06-22 11:25:00,
2013-06-22 05:31:00,65.7,60.7,25.93,ESE,115,1.0,1.0,84,0.00,,,0.00,5,Wunderground v.1.15,2013-06-22 11:31:00,
2013-06-22 05:36:00,65.5,60.5,25.93,ENE,75,1.0,1.0,84,0.00,,,0.00,7,Wunderground v.1.15,2013-06-22 11:36:00,
2013-06-22 05:45:00,65.4,60.1,25.93,East,83,1.0,2.0,83,0.00,,,0.00,12,Wunderground v.1.15,2013-06-22 11:45:00,
2013-06-22 05:50:00,65.4,60.1,25.93,East,83,1.0,1.0,83,0.00,,,0.00,14,Wunderground v.1.15,2013-06-22 11:50:00,
2013-06-22 05:55:00,65.2,60.2,25.93,SE,146,1.0,6.0,84,0.00,,,0.00,18,Wunderground v.1.15,2013-06-22 11:55:00,
2013-06-22 06:05:00,65.2,60.2,25.94,East,83,1.0,1.0,84,0.00,,,0.00,28,Wunderground v.1.15,2013-06-22 12:05:00,
2013-06-22 06:10:00,65.5,60.5,25.94,ESE,103,1.0,1.0,84,0.00,,,0.00,33,Wunderground v.1.15,2013-06-22 12:10:00,
2013-06-22 06:15:00,65.7,60.7,25.94,ESE,103,0.0,1.0,84,0.00,,,0.00,42,Wunderground v.1.15,2013-06-22 12:15:00,
2013-06-22 06:20:00,65.9,60.6,25.94,SSE,160,0.0,1.0,83,0.00,,,0.00,44,Wunderground v.1.15,2013-06-22 12:20:00,
2013-06-22 06:25:00,66.0,60.7,25.94,NNE,15,1.0,1.0,83,0.00,,,0.00,62,Wunderground v.1.15,2013-06-22 12:25:00,
2013-06-22 06:31:00,66.3,61.0,25.94,East,81,1.0,2.0,83,0.00,,,0.00,62,Wunderground v.1.15,2013-06-22 12:31:00,
2013-06-22 06:40:00,66.8,61.1,25.95,SE,138,1.0,1.0,82,0.00,,,0.00,56,Wunderground v.1.15,2013-06-22 12:40:00,
2013-06-22 06:45:00,67.0,61.3,25.95,ENE,58,1.0,2.0,82,0.00,,,0.00,35,Wunderground v.1.15,2013-06-22 12:45:00,
2013-06-22 06:50:00,66.8,61.1,25.95,SE,146,1.0,2.0,82,0.00,,,0.00,30,Wunderground v.1.15,2013-06-22 12:50:00,
2013-06-22 06:55:00,66.8,60.8,25.94,SE,146,1.0,4.0,81,0.00,,,0.00,39,Wunderground v.1.15,2013-06-22 12:55:00,
2013-06-22 07:00:00,66.8,60.8,25.95,ENE,75,1.0,1.0,81,0.00,,,0.00,60,Wunderground v.1.15,2013-06-22 13:00:00,
2013-06-22 07:05:00,67.2,61.2,25.95,ESE,119,1.0,1.0,81,0.00,,,0.00,98,Wunderground v.1.15,2013-06-22 13:05:00,
2013-06-22 07:10:00,67.3,61.3,25.95,ESE,119,0.0,0.0,81,0.00,,,0.00,232,Wunderground v.1.15,2013-06-22 13:10:00,
2013-06-22 07:20:00,68.8,61.7,25.95,SE,134,1.0,1.0,78,0.00,,,0.00,174,Wunderground v.1.15,2013-06-22 13:20:00,
2013-06-22 07:25:00,69.3,61.0,25.95,SE,127,1.0,1.0,75,0.00,,,0.00,125,Wunderground v.1.15,2013-06-22 13:25:00,
2013-06-22 07:30:00,69.5,61.2,25.95,SE,127,1.0,1.0,75,0.00,,,0.00,125,Wunderground v.1.15,2013-06-22 13:30:00,
2013-06-22 07:35:00,69.7,61.8,25.95,SE,128,0.0,1.0,76,0.00,,,0.00,130,Wunderground v.1.15,2013-06-22 13:35:00,
2013-06-22 07:45:00,69.7,61.8,25.95,East,101,1.0,1.0,76,0.00,,,0.00,156,Wunderground v.1.15,2013-06-22 13:45:00,
2013-06-22 07:50:00,69.7,61.8,25.95,SE,140,1.0,2.0,76,0.00,,,0.00,176,Wunderground v.1.15,2013-06-22 13:50:00,
2013-06-22 07:55:00,69.8,61.5,25.96,SE,140,1.0,2.0,75,0.00,,,0.00,176,Wunderground v.1.15,2013-06-22 13:55:00,
2013-06-22 08:00:00,70.0,62.1,25.96,SE,140,0.0,1.0,76,0.00,,,0.00,137,Wunderground v.1.15,2013-06-22 14:00:00,
2013-06-22 08:05:00,70.0,61.7,25.96,NE,40,1.0,2.0,75,0.00,,,0.00,102,Wunderground v.1.15,2013-06-22 14:05:00,
2013-06-22 08:10:00,70.0,61.7,25.96,ENE,66,1.0,1.0,75,0.00,,,0.00,98,Wunderground v.1.15,2013-06-22 14:10:00,
2013-06-22 08:20:00,69.8,61.9,25.96,ESE,121,2.0,4.0,76,0.00,,,0.00,192,Wunderground v.1.15,2013-06-22 14:20:00,
2013-06-22 08:25:00,69.8,61.9,25.96,ESE,123,3.0,6.0,76,0.00,,,0.00,330,Wunderground v.1.15,2013-06-22 14:25:00,
2013-06-22 08:30:00,69.8,61.9,25.96,East,97,3.0,6.0,76,0.00,,,0.00,237,Wunderground v.1.15,2013-06-22 14:30:00,
2013-06-22 08:40:00,69.7,62.2,25.95,East,79,3.0,3.0,77,0.00,,,0.00,248,Wunderground v.1.15,2013-06-22 14:40:00,
2013-06-22 08:46:00,69.8,61.9,25.95,ESE,106,2.0,3.0,76,0.00,,,0.00,190,Wunderground v.1.15,2013-06-22 14:46:00,
2013-06-22 08:55:00,70.8,62.5,25.95,ENE,67,1.0,1.0,75,0.00,,,0.00,482,Wunderground v.1.15,2013-06-22 14:55:00,
2013-06-22 09:00:00,71.5,62.4,25.95,North,360,1.0,2.0,73,0.00,,,0.00,380,Wunderground v.1.15,2013-06-22 15:00:00,
2013-06-22 09:10:00,72.6,62.7,25.95,NE,48,1.0,1.0,71,0.00,,,0.00,306,Wunderground v.1.15,2013-06-22 15:10:00,
2013-06-22 09:16:00,72.9,62.1,25.95,ENE,61,1.0,2.0,69,0.00,,,0.00,316,Wunderground v.1.15,2013-06-22 15:16:00,
2013-06-22 09:25:00,74.3,62.6,25.96,SE,145,1.0,2.0,67,0.00,,,0.00,587,Wunderground v.1.15,2013-06-22 15:25:00,
2013-06-22 09:30:00,75.2,63.1,25.95,South,185,3.0,3.0,66,0.00,,,0.00,436,Wunderground v.1.15,2013-06-22 15:30:00,
2013-06-22 09:35:00,75.5,62.9,25.96,NE,55,4.0,4.0,65,0.00,,,0.00,281,Wunderground v.1.15,2013-06-22 15:35:00,
2013-06-22 09:40:00,74.6,62.1,25.95,NNE,20,3.0,3.0,65,0.00,,,0.00,221,Wunderground v.1.15,2013-06-22 15:40:00,
2013-06-22 09:46:00,73.4,62.6,25.95,ESE,120,3.0,5.0,69,0.00,,,0.00,172,Wunderground v.1.15,2013-06-22 15:46:00,
2013-06-22 09:55:00,72.7,62.8,25.95,ESE,107,4.0,4.0,71,0.00,,,0.00,316,Wunderground v.1.15,2013-06-22 15:55:00,
2013-06-22 10:00:00,72.7,62.8,25.95,NE,40,4.0,4.0,71,0.00,,,0.00,243,Wunderground v.1.15,2013-06-22 16:00:00,
2013-06-22 10:05:00,72.4,62.5,25.95,NW,315,4.0,4.0,71,0.00,,,0.00,264,Wunderground v.1.15,2013-06-22 16:05:00,
2013-06-22 10:10:00,72.0,62.9,25.96,ESE,104,4.0,5.0,73,0.00,,,0.00,341,Wunderground v.1.15,2013-06-22 16:10:00,
2013-06-22 10:16:00,72.2,62.7,25.96,ESE,108,4.0,5.0,72,0.00,,,0.00,269,Wunderground v.1.15,2013-06-22 16:16:00,
2013-06-22 10:25:00,72.6,62.3,25.96,East,99,4.0,6.0,70,0.00,,,0.00,322,Wunderground v.1.15,2013-06-22 16:25:00,
2013-06-22 10:30:00,72.4,62.5,25.97,NNE,29,4.0,4.0,71,0.00,,,0.00,207,Wunderground v.1.15,2013-06-22 16:30:00,
2013-06-22 10:35:00,71.7,61.8,25.96,West,267,4.0,4.0,71,0.00,,,0.00,192,Wunderground v.1.15,2013-06-22 16:35:00,
2013-06-22 10:40:00,71.5,62.4,25.96,East,96,3.0,8.0,73,0.00,,,0.00,167,Wunderground v.1.15,2013-06-22 16:40:00,
2013-06-22 10:45:00,71.4,62.3,25.96,NE,42,4.0,8.0,73,0.00,,,0.00,179,Wunderground v.1.15,2013-06-22 16:45:00,
2013-06-22 10:50:00,71.2,62.5,25.96,NNW,341,4.0,7.0,74,0.00,,,0.00,169,Wunderground v.1.15,2013-06-22 16:50:00,
2013-06-22 11:00:00,71.0,62.7,25.95,North,355,5.0,5.0,75,0.00,,,0.00,257,Wunderground v.1.15,2013-06-22 17:00:00,
2013-06-22 11:05:00,71.0,62.3,25.95,North,350,4.0,5.0,74,0.00,,,0.00,260,Wunderground v.1.15,2013-06-22 17:05:00,
2013-06-22 11:10:00,71.4,62.7,25.95,NNW,338,3.0,3.0,74,0.00,,,0.00,267,Wunderground v.1.15,2013-06-22 17:10:00,
2013-06-22 11:15:00,71.7,62.2,25.95,NE,44,3.0,3.0,72,0.00,,,0.00,221,Wunderground v.1.15,2013-06-22 17:15:00,
2013-06-22 11:25:00,72.4,62.5,25.94,ESE,111,4.0,4.0,71,0.00,,,0.00,311,Wunderground v.1.15,2013-06-22 17:25:00,
2013-06-22 11:35:00,73.2,62.4,25.94,SE,124,5.0,5.0,69,0.00,,,0.00,385,Wunderground v.1.15,2013-06-22 17:35:00,
2013-06-22 11:40:00,73.2,62.4,25.95,ESE,107,6.0,8.0,69,0.00,,,0.00,346,Wunderground v.1.15,2013-06-22 17:40:00,
2013-06-22 11:45:00,73.4,62.6,25.94,NNE,17,6.0,8.0,69,0.00,,,0.00,436,Wunderground v.1.15,2013-06-22 17:45:00,
2013-06-22 11:50:00,73.6,62.4,25.94,East,98,5.0,6.0,68,0.00,,,0.00,272,Wunderground v.1.15,2013-06-22 17:50:00,
2013-06-22 11:55:00,73.2,62.8,25.94,SE,138,5.0,6.0,70,0.00,,,0.00,327,Wunderground v.1.15,2013-06-22 17:55:00,
2013-06-22 12:00:00,72.9,62.5,25.94,East,91,6.0,11.0,70,0.00,,,0.00,216,Wunderground v.1.15,2013-06-22 18:00:00,
2013-06-22 12:05:00,72.7,62.3,25.94,NNE,23,5.0,11.0,70,0.00,,,0.00,239,Wunderground v.1.15,2013-06-22 18:05:00,
2013-06-22 12:15:00,73.1,63.1,25.94,NNW,348,4.0,7.0,71,0.00,,,0.00,1262,Wunderground v.1.15,2013-06-22 18:15:00,
2013-06-22 12:20:00,73.8,62.6,25.94,NW,307,4.0,4.0,68,0.00,,,0.00,626,Wunderground v.1.15,2013-06-22 18:20:00,
2013-06-22 12:25:00,74.5,63.2,25.94,WNW,288,4.0,4.0,68,0.00,,,0.00,318,Wunderground v.1.15,2013-06-22 18:25:00,
2013-06-22 12:30:00,74.3,63.1,25.93,NE,38,5.0,7.0,68,0.00,,,0.00,403,Wunderground v.1.15,2013-06-22 18:30:00,
2013-06-22 12:35:00,73.9,62.7,25.93,NE,39,5.0,7.0,68,0.00,,,0.00,371,Wunderground v.1.15,2013-06-22 18:35:00,
2013-06-22 12:40:00,74.1,63.3,25.93,WSW,240,5.0,5.0,69,0.00,,,0.00,306,Wunderground v.1.15,2013-06-22 18:40:00,
2013-06-22 12:45:00,74.1,62.9,25.93,SE,136,4.0,5.0,68,0.00,,,0.00,234,Wunderground v.1.15,2013-06-22 18:45:00,
2013-06-22 12:55:00,73.8,63.0,25.93,NNE,27,5.0,6.0,69,0.00,,,0.00,353,Wunderground v.1.15,2013-06-22 18:55:00,
2013-06-22 13:00:00,73.9,63.5,25.93,North,360,4.0,5.0,70,0.00,,,0.00,457,Wunderground v.1.15,2013-06-22 19:00:00,
2013-06-22 13:10:00,73.2,63.2,25.92,WNW,291,6.0,6.0,71,0.00,,,0.00,489,Wunderground v.1.15,2013-06-22 19:10:00,
2013-06-22 13:15:00,73.6,63.6,25.93,NE,38,5.0,6.0,71,0.00,,,0.00,589,Wunderground v.1.15,2013-06-22 19:15:00,
2013-06-22 13:20:00,73.2,63.2,25.92,North,5,5.0,5.0,71,0.00,,,0.00,287,Wunderground v.1.15,2013-06-22 19:20:00,
2013-06-22 13:25:00,72.9,63.3,25.92,WNW,292,5.0,8.0,72,0.00,,,0.00,431,Wunderground v.1.15,2013-06-22 19:25:00,
2013-06-22 13:31:00,73.4,63.4,25.92,North,355,5.0,12.0,71,0.00,,,0.00,654,Wunderground v.1.15,2013-06-22 19:31:00,
2013-06-22 13:40:00,73.6,63.2,25.91,NNW,332,7.0,12.0,70,0.00,,,0.00,290,Wunderground v.1.15,2013-06-22 19:40:00,
2013-06-22 13:45:00,72.9,63.3,25.91,NE,37,6.0,12.0,72,0.00,,,0.00,352,Wunderground v.1.15,2013-06-22 19:45:00,
2013-06-22 13:50:00,72.4,63.6,25.91,East,97,5.0,5.0,74,0.00,,,0.00,373,Wunderground v.1.15,2013-06-22 19:50:00,
2013-06-22 13:55:00,72.6,63.8,25.91,NNE,14,4.0,5.0,74,0.00,,,0.00,336,Wunderground v.1.15,2013-06-22 19:55:00,
2013-06-22 14:01:00,72.7,63.5,25.90,North,355,4.0,5.0,73,0.00,,,0.00,220,Wunderground v.1.15,2013-06-22 20:01:00,
2013-06-22 14:10:00,72.2,62.7,25.90,NNW,344,5.0,5.0,72,0.00,,,0.00,438,Wunderground v.1.15,2013-06-22 20:10:00,
2013-06-22 14:16:00,72.6,63.1,25.89,North,350,5.0,5.0,72,0.00,,,0.00,352,Wunderground v.1.15,2013-06-22 20:16:00,
2013-06-22 14:25:00,71.7,63.0,25.90,East,94,7.0,11.0,74,0.00,,,0.00,288,Wunderground v.1.15,2013-06-22 20:25:00,
2013-06-22 14:30:00,71.4,63.4,25.90,SE,142,6.0,6.0,76,0.00,,,0.00,353,Wunderground v.1.15,2013-06-22 20:30:00,
2013-06-22 14:35:00,71.9,63.2,25.89,ENE,58,4.0,6.0,74,0.00,,,0.00,406,Wunderground v.1.15,2013-06-22 20:35:00,
2013-06-22 14:40:00,72.4,62.9,25.90,West,266,3.0,3.0,72,0.00,,,0.00,415,Wunderground v.1.15,2013-06-22 20:40:00,
2013-06-22 14:45:00,72.6,63.4,25.90,WNW,292,5.0,5.0,73,0.00,,,0.00,336,Wunderground v.1.15,2013-06-22 20:45:00,
2013-06-22 14:55:00,72.6,63.1,25.90,NNE,29,5.0,6.0,72,0.00,,,0.00,373,Wunderground v.1.15,2013-06-22 20:55:00,
2013-06-22 15:00:00,72.4,63.3,25.90,NW,316,4.0,6.0,73,0.00,,,0.00,265,Wunderground v.1.15,2013-06-22 21:00:00,
2013-06-22 15:05:00,72.0,62.9,25.90,WNW,298,4.0,6.0,73,0.00,,,0.00,181,Wunderground v.1.15,2013-06-22 21:05:00,
2013-06-22 15:10:00,71.7,63.4,25.91,NNE,22,4.0,4.0,75,0.00,,,0.00,141,Wunderground v.1.15,2013-06-22 21:10:00,
2013-06-22 15:16:00,71.7,63.4,25.91,NNW,348,3.0,4.0,75,0.00,,,0.00,107,Wunderground v.1.15,2013-06-22 21:16:00,
2013-06-22 15:21:00,71.5,63.2,25.91,East,100,4.0,5.0,75,0.00,,,0.00,137,Wunderground v.1.15,2013-06-22 21:21:00,
2013-06-22 15:30:00,71.0,63.1,25.91,North,360,3.0,3.0,76,0.00,,,0.00,90,Wunderground v.1.15,2013-06-22 21:30:00,
2013-06-22 15:35:00,71.0,62.7,25.91,East,80,3.0,3.0,75,0.00,,,0.00,69,Wunderground v.1.15,2013-06-22 21:35:00,
2013-06-22 15:40:00,71.0,63.1,25.90,ESE,113,2.0,5.0,76,0.00,,,0.00,86,Wunderground v.1.15,2013-06-22 21:40:00,
2013-06-22 15:45:00,71.2,62.9,25.91,NE,45,3.0,5.0,75,0.00,,,0.00,84,Wunderground v.1.15,2013-06-22 21:45:00,
2013-06-22 15:55:00,71.0,62.7,25.91,SE,131,3.0,3.0,75,0.00,,,0.00,72,Wunderground v.1.15,2013-06-22 21:55:00,
2013-06-22 16:00:00,71.0,62.7,25.91,East,86,2.0,2.0,75,0.00,,,0.00,77,Wunderground v.1.15,2013-06-22 22:00:00,
2013-06-22 16:05:00,71.0,62.7,25.91,NE,37,2.0,2.0,75,0.00,,,0.00,93,Wunderground v.1.15,2013-06-22 22:05:00,
2013-06-22 16:10:00,71.0,62.7,25.91,NNW,333,2.0,2.0,75,0.00,,,0.00,90,Wunderground v.1.15,2013-06-22 22:10:00,
2013-06-22 16:15:00,70.8,62.9,25.91,NNE,26,3.0,4.0,76,0.00,,,0.00,67,Wunderground v.1.15,2013-06-22 22:15:00,
2013-06-22 16:20:00,70.8,62.5,25.91,North,5,3.0,3.0,75,0.00,,,0.00,54,Wunderground v.1.15,2013-06-22 22:20:00,
2013-06-22 16:30:00,71.2,62.9,25.91,East,83,2.0,4.0,75,0.00,,,0.00,84,Wunderground v.1.15,2013-06-22 22:30:00,
2013-06-22 16:40:00,71.0,63.1,25.91,NW,316,3.0,3.0,76,0.00,,,0.00,33,Wunderground v.1.15,2013-06-22 22:40:00,
2013-06-22 16:45:00,70.8,62.9,25.92,NW,319,2.0,4.0,76,0.00,,,0.00,30,Wunderground v.1.15,2013-06-22 22:45:00,
2013-06-22 16:55:00,70.5,62.6,25.91,SE,140,3.0,3.0,76,0.00,,,0.00,19,Wunderground v.1.15,2013-06-22 22:55:00,
2013-06-22 17:00:00,70.5,62.6,25.92,SSE,165,3.0,5.0,76,0.00,,,0.00,19,Wunderground v.1.15,2013-06-22 23:00:00,
2013-06-22 17:05:00,70.3,62.4,25.92,East,97,3.0,5.0,76,0.00,,,0.00,23,Wunderground v.1.15,2013-06-22 23:05:00,
2013-06-22 17:10:00,70.2,62.3,25.91,ESE,111,3.0,5.0,76,0.00,,,0.00,21,Wunderground v.1.15,2013-06-22 23:10:00,
2013-06-22 17:16:00,69.8,61.9,25.92,North,355,4.0,10.0,76,0.00,,,0.00,21,Wunderground v.1.15,2013-06-22 23:16:00,
2013-06-22 17:25:00,69.2,62.0,25.92,SE,136,5.0,8.0,78,0.00,,,0.00,18,Wunderground v.1.15,2013-06-22 23:25:00,
2013-06-22 17:31:00,69.0,62.2,25.92,East,97,4.0,5.0,79,0.00,,,0.00,14,Wunderground v.1.15,2013-06-22 23:31:00,
2013-06-22 17:40:00,69.0,62.2,25.92,ESE,107,5.0,5.0,79,0.00,,,0.00,11,Wunderground v.1.15,2013-06-22 23:40:00,
2013-06-22 17:45:00,68.8,62.4,25.92,SE,132,4.0,5.0,80,0.00,,,0.00,7,Wunderground v.1.15,2013-06-22 23:45:00,
2013-06-22 17:55:00,68.8,62.4,25.92,ESE,122,4.0,4.0,80,0.00,,,0.00,0,Wunderground v.1.15,2013-06-22 23:55:00,
2013-06-22 18:00:00,68.7,62.3,25.92,WNW,289,3.0,3.0,80,0.00,,,0.00,0,Wunderground v.1.15,2013-06-23 00:00:00,
2013-06-22 18:05:00,68.7,62.3,25.93,ENE,75,3.0,4.0,80,0.00,,,0.00,0,Wunderground v.1.15,2013-06-23 00:05:00,
2013-06-22 18:10:00,68.8,62.0,25.92,SSE,153,2.0,5.0,79,0.00,,,0.00,0,Wunderground v.1.15,2013-06-23 00:10:00,
2013-06-22 18:15:00,69.2,62.4,25.93,SSE,153,1.0,5.0,79,0.00,,,0.00,0,Wunderground v.1.15,2013-06-23 00:15:00,
2013-06-22 18:25:00,69.5,62.7,25.93,ENE,64,0.0,3.0,79,0.00,,,0.00,0,Wunderground v.1.15,2013-06-23 00:25:00,
2013-06-22 18:31:00,69.5,62.7,25.93,SE,128,1.0,1.0,79,0.00,,,0.00,0,Wunderground v.1.15,2013-06-23 00:31:00,
2013-06-22 18:40:00,69.7,62.9,25.93,ENE,72,1.0,1.0,79,0.00,,,0.00,0,Wunderground v.1.15,2013-06-23 00:40:00,
2013-06-22 18:46:00,69.5,62.7,25.93,ENE,72,0.0,1.0,79,0.00,,,0.00,0,Wunderground v.1.15,2013-06-23 00:46:00,
2013-06-22 18:55:00,69.2,62.0,25.93,NNW,331,1.0,2.0,78,0.00,,,0.00,0,Wunderground v.1.15,2013-06-23 00:55:00,
2013-06-22 19:00:00,69.0,61.9,25.93,WNW,294,1.0,1.0,78,0.00,,,0.00,0,Wunderground v.1.15,2013-06-23 01:00:00,
2013-06-22 19:10:00,68.7,61.6,25.95,North,5,2.0,3.0,78,0.00,,,0.00,0,Wunderground v.1.15,2013-06-23 01:10:00,
2013-06-22 19:15:00,68.7,61.6,25.95,East,79,3.0,3.0,78,0.00,,,0.00,0,Wunderground v.1.15,2013-06-23 01:15:00,
2013-06-22 19:25:00,68.5,61.7,25.96,NE,47,3.0,5.0,79,0.00,,,0.00,0,Wunderground v.1.15,2013-06-23 01:25:00,
2013-06-22 19:30:00,68.3,61.9,25.96,NNE,25,3.0,3.0,80,0.00,,,0.00,0,Wunderground v.1.15,2013-06-23 01:30:00,
2013-06-22 19:36:00,68.3,61.9,25.96,ESE,120,3.0,3.0,80,0.00,,,0.00,0,Wunderground v.1.15,2013-06-23 01:36:00,
2013-06-22 19:45:00,68.5,62.1,25.97,East,83,3.0,4.0,80,0.00,,,0.00,0,Wunderground v.1.15,2013-06-23 01:45:00,
2013-06-22 19:55:00,68.3,61.9,25.97,North,5,2.0,6.0,80,0.00,,,0.00,0,Wunderground v.1.15,2013-06-23 01:55:00,
2013-06-22 20:00:00,68.3,61.9,25.97,East,90,2.0,2.0,80,0.00,,,0.00,0,Wunderground v.1.15,2013-06-23 02:00:00,
2013-06-22 20:10:00,68.3,61.5,25.97,NW,304,3.0,3.0,79,0.00,,,0.00,0,Wunderground v.1.15,2013-06-23 02:10:00,
2013-06-22 20:16:00,68.3,60.4,25.97,NE,53,2.0,3.0,76,0.00,,,0.00,0,Wunderground v.1.15,2013-06-23 02:16:00,
2013-06-22 20:20:00,68.3,59.7,25.97,South,176,1.0,2.0,74,0.00,,,0.00,0,Wunderground v.1.15,2013-06-23 02:20:00,
2013-06-22 20:26:00,68.7,58.5,25.97,SE,143,2.0,5.0,70,0.00,,,0.00,0,Wunderground v.1.15,2013-06-23 02:26:00,
2013-06-22 20:35:00,69.0,58.0,25.97,East,101,3.0,8.0,68,0.00,,,0.00,0,Wunderground v.1.15,2013-06-23 02:35:00,
2013-06-22 20:40:00,68.8,57.8,25.97,SE,142,5.0,5.0,68,0.00,,,0.00,0,Wunderground v.1.15,2013-06-23 02:40:00,
2013-06-22 20:45:00,68.7,57.7,25.97,North,5,4.0,5.0,68,0.00,,,0.00,0,Wunderground v.1.15,2013-06-23 02:45:00,
2013-06-22 20:50:00,68.2,57.6,25.97,ESE,102,3.0,8.0,69,0.00,,,0.00,0,Wunderground v.1.15,2013-06-23 02:50:00,
2013-06-22 20:55:00,67.7,58.0,25.97,ENE,74,5.0,8.0,71,0.00,,,0.00,0,Wunderground v.1.15,2013-06-23 02:55:00,
2013-06-22 21:01:00,67.3,57.6,25.96,ENE,78,4.0,4.0,71,0.00,,,0.00,0,Wunderground v.1.15,2013-06-23 03:01:00,
2013-06-22 21:10:00,66.7,57.8,25.96,NW,306,3.0,3.0,73,0.00,,,0.00,0,Wunderground v.1.15,2013-06-23 03:10:00,
2013-06-22 21:20:00,66.2,57.7,25.96,East,82,2.0,2.0,74,0.00,,,0.00,0,Wunderground v.1.15,2013-06-23 03:20:00,
2013-06-22 21:25:00,66.2,58.0,25.95,South,176,1.0,2.0,75,0.00,,,0.00,0,Wunderground v.1.15,2013-06-23 03:25:00,
2013-06-22 21:30:00,66.0,57.8,25.95,East,83,1.0,2.0,75,0.00,,,0.00,0,Wunderground v.1.15,2013-06-23 03:30:00,
2013-06-22 21:40:00,65.9,57.7,25.94,ESE,107,3.0,3.0,75,0.00,,,0.00,0,Wunderground v.1.15,2013-06-23 03:40:00,
2013-06-22 21:45:00,65.9,57.4,25.94,SSW,193,2.0,3.0,74,0.00,,,0.00,0,Wunderground v.1.15,2013-06-23 03:45:00,
2013-06-22 21:55:00,65.9,57.4,25.94,NE,44,2.0,2.0,74,0.00,,,0.00,0,Wunderground v.1.15,2013-06-23 03:55:00,
2013-06-22 22:00:00,65.9,57.4,25.94,East,96,1.0,2.0,74,0.00,,,0.00,0,Wunderground v.1.15,2013-06-23 04:00:00,
2013-06-22 22:05:00,65.9,57.4,25.94,SE,128,1.0,2.0,74,0.00,,,0.00,0,Wunderground v.1.15,2013-06-23 04:05:00,
2013-06-22 22:10:00,65.9,57.4,25.93,ENE,78,1.0,1.0,74,0.00,,,0.00,0,Wunderground v.1.15,2013-06-23 04:10:00,
2013-06-22 22:16:00,66.0,57.8,25.93,ENE,78,1.0,1.0,75,0.00,,,0.00,0,Wunderground v.1.15,2013-06-23 04:16:00,
2013-06-22 22:21:00,66.2,58.0,25.93,East,99,1.0,1.0,75,0.00,,,0.00,0,Wunderground v.1.15,2013-06-23 04:21:00,
2013-06-22 22:25:00,66.2,58.0,25.93,East,99,0.0,1.0,75,0.00,,,0.00,0,Wunderground v.1.15,2013-06-23 04:25:00,
2013-06-22 22:30:00,66.2,57.7,25.93,SSE,159,1.0,2.0,74,0.00,,,0.00,0,Wunderground v.1.15,2013-06-23 04:30:00,
2013-06-22 22:35:00,66.3,56.6,25.93,East,87,1.0,2.0,71,0.00,,,0.00,0,Wunderground v.1.15,2013-06-23 04:35:00,
2013-06-22 22:40:00,67.0,56.9,25.93,East,87,2.0,3.0,70,0.00,,,0.00,0,Wunderground v.1.15,2013-06-23 04:40:00,
2013-06-22 22:45:00,67.5,56.6,25.93,SE,135,3.0,3.0,68,0.00,,,0.00,0,Wunderground v.1.15,2013-06-23 04:45:00,
2013-06-22 22:50:00,67.8,56.4,25.93,ESE,110,4.0,7.0,67,0.00,,,0.00,0,Wunderground v.1.15,2013-06-23 04:50:00,
2013-06-22 23:00:00,68.0,56.6,25.93,SSE,158,4.0,4.0,67,0.00,,,0.00,0,Wunderground v.1.15,2013-06-23 05:00:00,
2013-06-22 23:05:00,67.7,57.6,25.93,East,92,4.0,11.0,70,0.00,,,0.00,0,Wunderground v.1.15,2013-06-23 05:05:00,
2013-06-22 23:16:00,66.3,57.8,25.94,NNW,339,6.0,10.0,74,0.00,,,0.00,0,Wunderground v.1.15,2013-06-23 05:16:00,
2013-06-22 23:20:00,65.9,58.1,25.94,SE,126,6.0,6.0,76,0.00,,,0.00,0,Wunderground v.1.15,2013-06-23 05:20:00,
2013-06-22 23:30:00,65.2,58.2,25.95,East,87,6.0,13.0,78,0.00,,,0.00,0,Wunderground v.1.15,2013-06-23 05:30:00,
2013-06-22 23:40:00,64.9,58.6,25.95,ESE,114,6.0,6.0,80,0.00,,,0.00,0,Wunderground v.1.15,2013-06-23 05:40:00,
2013-06-22 23:45:00,64.7,58.0,25.96,SE,132,5.0,6.0,79,0.00,,,0.00,0,Wunderground v.1.15,2013-06-23 05:45:00,
2013-06-22 23:50:00,64.6,58.3,25.96,East,92,5.0,5.0,80,0.00,,,0.00,0,Wunderground v.1.15,2013-06-23 05:50:00,